Terminal Aerodrome Forecast
Issued by NWS Pendleton, OR

Home | Current Version | Previous Version | Text Only | Print | Product List | Glossary On
Versions: 1 2 3 4 5 6 7 8 9 10 11 12 13 14 15 16
000
FTUS46 KPDT 181700
TAFPDT
TAF
KPDT 181740Z 1818/1918 26017G25KT P6SM FEW070 BKN250
     FM182100 28015G23KT P6SM FEW070 SCT250
     FM190000 28011KT P6SM SCT150 SCT200
     FM190400 14006KT P6SM SCT120
     FM190900 12006KT P6SM BKN120=

USA.gov is the U.S. government's official web portal to all federal, state and local government web resources and services.